Terminal Aerodrome Forecast
Issued by NWS

Home | Current Version | Previous Version | Graphics & Text | Print | Product List | Glossary On
Versions: 1 2 3 4 5 6 7 8 9 10 11 12 13 14 15 16 17
000
FTUS43 KGRB 081600 AAC
TAFCWA
TAF AMD
KCWA 081600Z 0816/0912 30011G17KT P6SM VCSH SCT022 BKN040
      TEMPO 0816/0820 3SM -SHRA BKN022
     FM082000 30009G14KT P6SM VCSH BKN045
      TEMPO 0820/0824 3SM -SHRA BKN025
     FM090100 30005KT P6SM SCT050 SCT100=

USA.gov is the U.S. government's official web portal to all federal, state and local government web resources and services.